createdAt,value
2019-04-29T00:02:25.372Z,2.47
2019-04-29T00:05:31.125Z,2.62
2019-04-29T00:08:36.886Z,1.57
2019-04-29T00:11:42.740Z,2.30
2019-04-29T00:14:56.940Z,2.65
2019-04-29T00:18:06.908Z,2.22
2019-04-29T00:21:12.601Z,2.15
2019-04-29T00:24:19.260Z,2.55
2019-04-29T00:27:24.912Z,1.77
2019-04-29T00:30:30.584Z,2.35
2019-04-29T00:33:36.483Z,3.67
2019-04-29T00:37:06.721Z,4.08
2019-04-29T00:40:38.757Z,3.35
2019-04-29T00:43:52.029Z,3.20
2019-04-29T00:46:59.044Z,2.02
2019-04-29T00:50:05.007Z,1.92
2019-04-29T00:53:11.998Z,2.47
2019-04-29T00:56:17.745Z,2.65
2019-04-29T00:59:23.443Z,2.35
2019-04-29T01:02:29.400Z,2.47
2019-04-29T01:05:35.312Z,3.95
2019-04-29T01:08:40.859Z,1.75
2019-04-29T01:11:46.622Z,2.12
2019-04-29T01:14:52.538Z,1.85
2019-04-29T01:17:59.138Z,3.25
2019-04-29T01:21:04.812Z,2.10
2019-04-29T01:24:10.603Z,1.92
2019-04-29T01:27:20.604Z,2.22
2019-04-29T01:31:04.127Z,1.92
2019-04-29T01:34:20.637Z,2.33
2019-04-29T01:37:45.207Z,2.42
2019-04-29T01:40:58.361Z,1.82
2019-04-29T01:44:05.371Z,2.50
2019-04-29T01:47:11.030Z,1.52
2019-04-29T01:50:16.666Z,1.80
2019-04-29T01:53:22.341Z,2.58
2019-04-29T01:56:28.259Z,2.40
2019-04-29T01:59:33.950Z,2.85
2019-04-29T02:02:39.697Z,3.50
2019-04-29T02:05:46.462Z,2.98
2019-04-29T02:08:54.020Z,1.87
2019-04-29T02:11:59.631Z,2.95
2019-04-29T02:15:06.328Z,2.00
2019-04-29T02:18:11.994Z,1.92
2019-04-29T02:21:17.925Z,2.22
2019-04-29T02:24:23.577Z,3.60
2019-04-29T02:27:29.229Z,1.57
2019-04-29T02:30:42.543Z,1.62
2019-04-29T02:33:48.205Z,1.65
2019-04-29T02:36:53.861Z,1.10
2019-04-29T02:40:05.695Z,1.87
2019-04-29T02:43:19.570Z,1.57
2019-04-29T02:46:25.248Z,2.27
2019-04-29T02:49:31.947Z,2.20
2019-04-29T02:52:37.597Z,3.37
2019-04-29T02:55:47.381Z,3.58
2019-04-29T02:58:59.521Z,2.90
2019-04-29T03:02:24.081Z,2.87
2019-04-29T03:05:34.731Z,1.82
2019-04-29T03:08:41.507Z,5.10
2019-04-29T03:11:47.231Z,2.52
2019-04-29T03:14:52.998Z,2.47
2019-04-29T03:17:58.975Z,2.98
2019-04-29T03:21:14.514Z,1.92
2019-04-29T03:24:21.905Z,1.85
2019-04-29T03:27:29.266Z,3.05
2019-04-29T03:30:36.734Z,3.27
2019-04-29T03:33:42.486Z,2.05
2019-04-29T03:36:48.118Z,2.58
2019-04-29T03:39:53.769Z,3.95
2019-04-29T03:42:59.423Z,2.10
2019-04-29T03:46:05.092Z,2.22
2019-04-29T03:49:11.798Z,2.10
2019-04-29T03:52:17.513Z,2.52
2019-04-29T03:55:38.184Z,2.40
2019-04-29T03:58:30.573Z,2.90
2019-04-29T04:01:53.198Z,2.83
2019-04-29T04:05:16.462Z,3.02
2019-04-29T04:08:26.560Z,2.87
2019-04-29T04:11:32.179Z,2.70
2019-04-29T04:14:37.925Z,2.80
2019-04-29T04:17:58.895Z,3.17
2019-04-29T04:21:04.723Z,2.70
2019-04-29T04:24:10.368Z,3.08
2019-04-29T04:27:16.005Z,3.87
2019-04-29T04:30:21.962Z,4.37
2019-04-29T04:33:27.611Z,3.05
2019-04-29T04:36:33.275Z,2.70
2019-04-29T04:39:40.546Z,3.75
2019-04-29T04:42:46.276Z,2.42
2019-04-29T04:45:53.712Z,3.45
2019-04-29T04:48:59.492Z,2.80
2019-04-29T04:52:05.126Z,3.35
2019-04-29T04:55:11.437Z,2.98
2019-04-29T04:58:18.162Z,3.00
2019-04-29T05:01:23.857Z,3.00
2019-04-29T05:04:29.489Z,3.30
2019-04-29T05:07:35.334Z,2.30
2019-04-29T05:10:41.120Z,2.83
2019-04-29T05:13:46.778Z,2.45
2019-04-29T05:16:52.541Z,2.10
2019-04-29T05:19:58.269Z,2.40
2019-04-29T05:23:04.162Z,3.08
2019-04-29T05:26:10.890Z,3.00
2019-04-29T05:29:16.681Z,3.20
2019-04-29T05:32:22.349Z,2.65
2019-04-29T05:35:40.084Z,2.85
2019-04-29T05:38:57.401Z,4.45
2019-04-29T05:42:03.020Z,6.22
2019-04-29T05:45:20.229Z,2.22
2019-04-29T05:48:27.610Z,3.47
2019-04-29T05:51:45.656Z,7.08
2019-04-29T05:54:51.358Z,2.33
2019-04-29T05:58:11.449Z,4.78
2019-04-29T06:01:21.011Z,2.70
2019-04-29T06:04:28.629Z,2.58
2019-04-29T06:07:34.018Z,1.90
2019-04-29T06:10:42.028Z,2.67
2019-04-29T06:13:47.082Z,3.30
2019-04-29T06:16:53.064Z,3.08
2019-04-29T06:19:58.844Z,2.72
2019-04-29T06:23:04.549Z,1.80
2019-04-29T06:26:11.234Z,3.10
2019-04-29T06:29:16.909Z,2.75
2019-04-29T06:32:24.904Z,2.83
2019-04-29T06:35:30.890Z,5.92
2019-04-29T06:38:36.529Z,1.98
2019-04-29T06:41:45.106Z,4.12
2019-04-29T06:44:51.177Z,1.80
2019-04-29T06:47:58.568Z,4.17
2019-04-29T06:51:04.390Z,2.00
2019-04-29T06:54:09.990Z,4.17
2019-04-29T06:57:15.661Z,3.67
2019-04-29T07:00:22.227Z,3.22
2019-04-29T07:03:28.716Z,3.67
2019-04-29T07:06:34.365Z,4.15
2019-04-29T07:09:40.043Z,7.15
2019-04-29T07:12:49.019Z,11.70
2019-04-29T07:15:54.709Z,7.08
2019-04-29T07:19:05.750Z,25.92
2019-04-29T07:22:11.438Z,16.77
2019-04-29T07:25:17.905Z,12.50
2019-04-29T07:28:26.184Z,8.80
2019-04-29T07:31:33.330Z,8.38
2019-04-29T07:34:39.688Z,9.45
2019-04-29T07:37:47.050Z,8.03
2019-04-29T07:40:54.452Z,8.90
2019-04-29T07:44:01.817Z,9.23
2019-04-29T07:47:07.485Z,9.78
2019-04-29T07:50:13.474Z,14.25
2019-04-29T07:53:20.935Z,19.27
2019-04-29T07:56:28.150Z,16.45
2019-04-29T07:59:38.168Z,15.20
2019-04-29T08:02:41.190Z,15.08
2019-04-29T08:05:47.153Z,16.77
2019-04-29T08:08:55.059Z,18.92
2019-04-29T08:12:00.329Z,18.35
2019-04-29T08:15:07.781Z,16.62
2019-04-29T08:18:16.185Z,15.35
2019-04-29T08:21:21.197Z,12.85
2019-04-29T08:24:26.919Z,13.00
2019-04-29T08:27:39.768Z,10.40
2019-04-29T08:30:41.786Z,12.20
2019-04-29T08:33:48.542Z,11.90
2019-04-29T08:36:54.213Z,12.10
2019-04-29T08:40:15.111Z,12.10
2019-04-29T08:43:29.296Z,11.30
2019-04-29T08:46:44.368Z,11.08
2019-04-29T08:49:47.884Z,11.90
2019-04-29T08:52:53.508Z,11.10
2019-04-29T08:56:00.897Z,8.33
2019-04-29T08:59:06.473Z,10.80
2019-04-29T09:02:13.504Z,8.45
2019-04-29T09:05:19.419Z,7.03
2019-04-29T09:08:28.736Z,7.28
2019-04-29T09:11:32.273Z,7.80
2019-04-29T09:14:37.920Z,16.30
2019-04-29T09:17:43.596Z,9.38
2019-04-29T09:20:49.221Z,7.30
2019-04-29T09:23:54.976Z,6.78
2019-04-29T09:27:14.200Z,7.53
2019-04-29T09:30:20.100Z,8.50
2019-04-29T09:33:25.960Z,6.95
2019-04-29T09:36:32.529Z,5.58
2019-04-29T09:39:43.284Z,6.55
2019-04-29T09:42:59.005Z,6.58
2019-04-29T09:46:11.117Z,7.30
2019-04-29T09:49:16.753Z,6.72
2019-04-29T09:52:22.414Z,5.00
2019-04-29T09:55:28.074Z,5.83
2019-04-29T09:58:35.656Z,5.45
2019-04-29T10:01:50.615Z,6.50
2019-04-29T10:05:13.765Z,5.10
2019-04-29T10:08:19.453Z,5.95
2019-04-29T10:11:25.100Z,7.03
2019-04-29T10:14:30.966Z,7.30
2019-04-29T10:17:58.741Z,7.65
2019-04-29T10:21:10.417Z,5.70
2019-04-29T10:24:16.085Z,5.75
2019-04-29T10:27:23.570Z,6.50
2019-04-29T10:30:31.105Z,6.28
2019-04-29T10:33:38.164Z,7.00
2019-04-29T10:36:45.001Z,4.33
2019-04-29T10:53:46.685Z,4.75
2019-04-29T10:56:52.436Z,6.17
2019-04-29T11:00:04.369Z,6.00
2019-04-29T11:03:10.404Z,3.67
2019-04-29T11:06:17.369Z,5.00
2019-04-29T11:09:50.207Z,6.72
2019-04-29T11:12:53.708Z,4.53
2019-04-29T11:15:59.344Z,5.50
2019-04-29T11:19:06.027Z,5.28
2019-04-29T11:22:13.692Z,4.67
2019-04-29T11:25:41.882Z,4.65
2019-04-29T11:28:51.149Z,4.75
2019-04-29T11:31:58.148Z,4.37
2019-04-29T11:35:10.588Z,4.22
2019-04-29T11:38:16.618Z,3.90
2019-04-29T11:41:23.229Z,5.33
2019-04-29T11:44:31.763Z,5.00
2019-04-29T11:47:36.185Z,4.83
2019-04-29T11:50:55.846Z,4.50
2019-04-29T11:54:02.588Z,3.85
2019-04-29T11:57:10.008Z,4.85
2019-04-29T12:00:33.812Z,3.72
2019-04-29T12:03:41.769Z,4.92
2019-04-29T12:06:51.357Z,3.33
2019-04-29T12:09:56.001Z,3.67
2019-04-29T12:13:03.465Z,4.35
2019-04-29T12:16:14.053Z,4.00
2019-04-29T12:19:25.976Z,4.22
2019-04-29T12:22:47.392Z,4.30
2019-04-29T12:25:42.469Z,4.45
2019-04-29T12:28:48.196Z,4.05
2019-04-29T12:32:13.001Z,4.95
2019-04-29T12:35:51.512Z,3.45
2019-04-29T12:39:06.437Z,4.12
2019-04-29T12:42:44.038Z,3.70
2019-04-29T12:46:11.415Z,6.50
2019-04-29T12:49:17.445Z,7.53
2019-04-29T12:52:23.353Z,6.92
2019-04-29T12:55:44.982Z,10.38
2019-04-29T12:58:50.390Z,7.35
2019-04-29T13:02:19.840Z,6.50
2019-04-29T13:05:43.020Z,9.38
2019-04-29T13:08:54.773Z,4.85
2019-04-29T13:12:17.999Z,5.47
2019-04-29T13:15:15.602Z,4.95
2019-04-29T13:18:40.134Z,5.67
2019-04-29T13:21:45.882Z,6.47
2019-04-29T13:24:51.590Z,7.47
2019-04-29T13:28:03.745Z,5.80
2019-04-29T13:31:04.857Z,7.70
2019-04-29T13:34:23.611Z,4.78
2019-04-29T13:37:22.077Z,8.60
2019-04-29T13:40:27.853Z,5.92
2019-04-29T13:43:35.484Z,8.18
2019-04-29T13:47:00.682Z,10.43
2019-04-29T13:50:18.918Z,7.83
2019-04-29T13:53:19.067Z,5.45
2019-04-29T13:56:34.942Z,5.20
2019-04-29T13:59:59.144Z,6.70
2019-04-29T14:03:13.228Z,11.48
2019-04-29T14:06:19.941Z,6.55
2019-04-29T14:09:25.969Z,4.15
2019-04-29T14:15:40.446Z,5.58
2019-04-29T14:18:48.174Z,5.53
2019-04-29T14:18:53.620Z,8.70
2019-04-29T14:21:54.622Z,5.33
2019-04-29T14:25:00.377Z,5.08
2019-04-29T14:28:07.142Z,7.22
2019-04-29T14:31:12.913Z,6.33
2019-04-29T14:34:34.314Z,7.12
2019-04-29T14:37:37.957Z,4.90
2019-04-29T14:40:43.986Z,6.20
2019-04-29T14:44:15.846Z,5.22
2019-04-29T14:47:47.117Z,6.95
2019-04-29T14:50:54.215Z,4.42
2019-04-29T14:54:01.369Z,4.95
2019-04-29T14:57:09.165Z,6.53
2019-04-29T15:00:30.155Z,6.12
2019-04-29T15:03:52.558Z,6.55
2019-04-29T15:06:59.992Z,4.50
2019-04-29T15:10:07.833Z,5.03
2019-04-29T15:13:21.189Z,5.92
2019-04-29T15:16:45.601Z,4.42
2019-04-29T15:20:07.098Z,3.92
2019-04-29T15:23:12.768Z,4.58
2019-04-29T15:26:20.396Z,4.83
2019-04-29T15:29:25.790Z,7.00
2019-04-29T15:32:31.675Z,5.97
2019-04-29T15:35:37.792Z,7.47
2019-04-29T15:38:48.941Z,8.73
2019-04-29T15:41:54.008Z,8.48
2019-04-29T15:44:58.268Z,9.20
2019-04-29T15:48:03.931Z,9.23
2019-04-29T15:51:13.844Z,5.55
2019-04-29T15:54:18.019Z,7.67
2019-04-29T15:57:24.232Z,9.48
2019-04-29T16:00:36.643Z,6.65
2019-04-29T16:03:39.258Z,6.22
2019-04-29T16:07:06.954Z,4.47
2019-04-29T16:10:30.796Z,7.40
2019-04-29T16:13:37.058Z,3.85
2019-04-29T16:16:43.424Z,5.33
2019-04-29T16:19:49.210Z,6.80
2019-04-29T16:23:00.535Z,3.08
2019-04-29T16:26:02.226Z,5.75
2019-04-29T16:29:13.307Z,8.75
2019-04-29T16:32:25.626Z,8.58
2019-04-29T16:35:34.847Z,6.95
2019-04-29T16:38:39.726Z,5.78
2019-04-29T16:42:13.673Z,8.85
2019-04-29T16:45:21.645Z,10.90
2019-04-29T16:48:28.464Z,3.87
2019-04-29T16:51:34.793Z,8.53
2019-04-29T16:54:40.520Z,5.10
2019-04-29T16:57:46.239Z,4.70
2019-04-29T17:04:05.097Z,4.10
2019-04-29T17:07:13.543Z,5.03
2019-04-29T17:10:25.139Z,10.65
2019-04-29T17:13:30.860Z,7.22
2019-04-29T17:16:36.493Z,8.15
2019-04-29T17:19:43.026Z,6.30
2019-04-29T17:22:48.945Z,6.08
2019-04-29T17:25:54.712Z,6.00
2019-04-29T17:29:38.943Z,7.78
2019-04-29T17:32:52.988Z,4.95
2019-04-29T17:35:19.310Z,3.08
2019-04-29T17:36:06.439Z,5.33
2019-04-29T17:39:14.397Z,6.72
2019-04-29T17:42:21.560Z,4.72
2019-04-29T17:45:36.563Z,3.05
2019-04-29T17:49:01.528Z,4.28
2019-04-29T17:52:15.827Z,6.90
2019-04-29T17:55:47.612Z,5.00
2019-04-29T17:58:58.480Z,3.70
2019-04-29T18:02:26.021Z,10.80
2019-04-29T18:05:52.997Z,7.30
2019-04-29T18:09:11.160Z,6.25
2019-04-29T18:12:21.520Z,7.33
2019-04-29T18:15:40.667Z,4.65
2019-04-29T18:18:57.406Z,3.52
2019-04-29T18:26:36.455Z,6.42
2019-04-29T18:29:43.206Z,6.35
2019-04-29T18:32:49.201Z,5.83
2019-04-29T18:36:03.738Z,7.65
2019-04-29T18:44:54.927Z,6.35
2019-04-29T18:48:16.511Z,4.87
2019-04-29T18:51:20.810Z,8.13
2019-04-29T18:54:25.427Z,6.08
2019-04-29T18:57:32.322Z,4.55
2019-04-29T19:00:39.658Z,4.97
2019-04-29T19:03:55.910Z,4.78
2019-04-29T19:07:02.432Z,3.40
2019-04-29T19:10:14.339Z,5.28
2019-04-29T19:13:16.790Z,2.98
2019-04-29T19:16:23.304Z,3.77
2019-04-29T19:19:30.721Z,6.12
2019-04-29T19:22:39.974Z,8.55
2019-04-29T19:25:46.481Z,6.47
2019-04-29T19:28:51.229Z,9.35
2019-04-29T19:31:58.001Z,11.40
2019-04-29T19:35:03.782Z,10.72
2019-04-29T19:38:12.366Z,9.55
2019-04-29T19:41:18.140Z,5.15
2019-04-29T19:44:26.410Z,5.75
2019-04-29T19:47:33.106Z,10.10
2019-04-29T19:50:39.289Z,6.65
2019-04-29T19:53:49.450Z,8.70
2019-04-29T19:56:55.553Z,6.58
2019-04-29T20:00:02.071Z,8.28
2019-04-29T20:03:20.302Z,6.45
2019-04-29T20:06:25.009Z,3.12
2019-04-29T20:09:27.614Z,6.20
2019-04-29T20:12:31.880Z,4.28
2019-04-29T20:15:45.873Z,5.67
2019-04-29T20:19:20.357Z,5.33
2019-04-29T20:22:23.164Z,7.20
2019-04-29T20:25:37.630Z,3.80
2019-04-29T20:28:37.452Z,3.85
2019-04-29T20:31:48.568Z,2.95
2019-04-29T20:34:50.752Z,4.85
2019-04-29T20:37:59.959Z,6.12
2019-04-29T20:41:06.255Z,3.17
2019-04-29T20:44:11.137Z,4.53
2019-04-29T20:47:23.082Z,2.87
2019-04-29T20:50:25.477Z,3.60
2019-04-29T20:53:40.646Z,3.95
2019-04-29T20:57:12.568Z,3.90
2019-04-29T21:00:13.251Z,2.90
2019-04-29T21:03:27.637Z,3.10
2019-04-29T21:06:26.463Z,2.62
2019-04-29T21:09:32.115Z,3.80
2019-04-29T21:12:59.630Z,3.05
2019-04-29T21:16:15.861Z,3.37
2019-04-29T21:19:21.597Z,3.83
2019-04-29T21:22:27.287Z,4.37
2019-04-29T21:25:32.884Z,5.65
2019-04-29T21:28:41.768Z,2.83
2019-04-29T21:31:50.589Z,3.60
2019-04-29T21:35:02.801Z,5.45
2019-04-29T21:38:39.429Z,6.30
2019-04-29T21:41:58.888Z,6.85
2019-04-29T21:45:08.651Z,4.22
2019-04-29T21:48:12.561Z,7.33
2019-04-29T21:51:18.279Z,3.92
2019-04-29T21:54:24.063Z,7.20
2019-04-29T22:07:55.696Z,5.90
2019-04-29T22:11:05.078Z,6.00
2019-04-29T22:14:09.799Z,3.95
2019-04-29T22:17:16.973Z,3.95
2019-04-29T22:20:22.628Z,6.05
2019-04-29T22:23:28.280Z,6.58
2019-04-29T22:26:35.023Z,7.53
2019-04-29T22:29:40.912Z,10.55
2019-04-29T22:32:47.112Z,5.92
2019-04-29T22:35:55.457Z,5.12
2019-04-29T22:39:01.313Z,5.22
2019-04-29T22:42:27.825Z,4.47
2019-04-29T22:45:35.582Z,3.12
2019-04-29T22:48:45.473Z,4.97
2019-04-29T22:51:49.771Z,3.75
2019-04-29T22:55:01.816Z,3.70
2019-04-29T22:58:09.723Z,4.53
2019-04-29T23:01:15.589Z,4.03
2019-04-29T23:04:22.325Z,3.72
2019-04-29T23:07:29.001Z,5.03
2019-04-29T23:10:35.667Z,3.02
2019-04-29T23:13:41.637Z,5.05
2019-04-29T23:16:47.462Z,3.58
2019-04-29T23:19:57.038Z,4.47
2019-04-29T23:23:07.950Z,3.60
2019-04-29T23:26:14.819Z,5.08
2019-04-29T23:29:21.762Z,2.87
2019-04-29T23:32:27.460Z,3.52
2019-04-29T23:35:34.865Z,2.90
2019-04-29T23:38:42.881Z,3.67
2019-04-29T23:41:47.968Z,3.52
2019-04-29T23:44:55.080Z,2.50
2019-04-29T23:48:00.958Z,4.10
2019-04-29T23:51:06.570Z,3.00
2019-04-29T23:54:12.221Z,2.60
2019-04-29T23:57:37.095Z,3.52
